Time;durP1;ratioP1;P1;durP2;ratioP2;P2;SDS_P1;SDS_P2;PMS_P1;PMS_P2;Temp;Humidity;BMP_temperature;BMP_pressure;BME280_temperature;BME280_humidity;BME280_pressure;Samples;Min_cycle;Max_cycle;Signal;HPM_P1;HPM_P2
2023/05/13 00:02:19;;;;;;;11.67;10.67;;;;;;;11.10;100.00;96154.59;4989719;28;103816;-63
2023/05/13 00:04:51;;;;;;;12.23;11.13;;;;;;;11.09;100.00;96153.00;4989012;28;101879;-63
2023/05/13 00:07:19;;;;;;;12.23;11.23;;;;;;;11.07;100.00;96154.31;5010315;28;102986;-63
2023/05/13 00:09:46;;;;;;;11.90;10.67;;;;;;;11.05;100.00;96151.91;4992450;28;102711;-63
2023/05/13 00:12:13;;;;;;;12.63;11.53;;;;;;;11.04;100.00;96160.97;4993828;28;101843;-62
2023/05/13 00:14:45;;;;;;;13.27;12.17;;;;;;;11.00;100.00;96156.41;4999196;28;102571;-63
2023/05/13 00:17:12;;;;;;;13.13;11.83;;;;;;;10.98;100.00;96147.88;5030415;28;102018;-63
2023/05/13 00:19:39;;;;;;;13.53;12.33;;;;;;;10.94;100.00;96163.56;5028829;28;102336;-63
2023/05/13 00:22:06;;;;;;;13.27;12.13;;;;;;;10.95;100.00;96162.50;5019144;28;102510;-63
2023/05/13 00:25:00;;;;;;;13.90;12.60;;;;;;;10.98;100.00;96158.53;4988478;28;101929;-63
2023/05/13 00:27:27;;;;;;;13.33;12.13;;;;;;;11.02;100.00;96162.28;4981272;28;105713;-63
2023/05/13 00:29:54;;;;;;;14.40;13.10;;;;;;;11.04;100.00;96158.31;4988005;28;105305;-63
2023/05/13 00:32:21;;;;;;;14.90;13.60;;;;;;;11.11;100.00;96163.38;4992236;28;101861;-63
2023/05/13 00:35:19;;;;;;;14.60;13.20;;;;;;;11.01;100.00;96150.81;5002107;28;105165;-63
2023/05/13 00:37:46;;;;;;;13.93;12.63;;;;;;;11.07;100.00;96159.66;5006568;28;101944;-63
2023/05/13 00:40:19;;;;;;;14.10;12.90;;;;;;;11.00;100.00;96153.75;4988556;28;104874;-63
2023/05/13 00:42:46;;;;;;;13.53;12.33;;;;;;;10.97;100.00;96151.59;4995851;28;105449;-63
2023/05/13 00:45:18;;;;;;;13.93;12.73;;;;;;;10.98;100.00;96150.53;4994488;28;102109;-63
2023/05/13 00:47:45;;;;;;;13.43;12.13;;;;;;;11.00;100.00;96151.06;4997138;28;104863;-63
2023/05/13 00:50:14;;;;;;;13.83;12.63;;;;;;;10.95;100.00;96151.84;5011125;28;104321;-63
2023/05/13 00:52:42;;;;;;;14.70;13.33;;;;;;;11.03;100.00;96150.56;5011319;28;101946;-63
2023/05/13 00:55:57;;;;;;;14.47;13.07;;;;;;;11.08;100.00;96154.06;5007122;28;102365;-63
2023/05/13 00:58:26;;;;;;;14.10;12.80;;;;;;;11.12;100.00;96157.00;5002408;28;101867;-63
2023/05/13 01:01:05;;;;;;;14.80;13.40;;;;;;;11.14;100.00;96152.22;5030023;28;102591;-63
2023/05/13 01:04:04;;;;;;;14.10;12.80;;;;;;;11.12;100.00;96157.78;5010941;28;103717;-63
2023/05/13 01:06:35;;;;;;;15.40;13.90;;;;;;;10.97;100.00;96164.91;4971698;28;101833;-63
2023/05/13 01:09:11;;;;;;;15.27;13.60;;;;;;;10.99;100.00;96157.47;4988162;28;105171;-63
2023/05/13 01:11:41;;;;;;;14.87;13.47;;;;;;;11.04;100.00;96160.16;4991018;28;105460;-63
2023/05/13 01:14:23;;;;;;;15.73;14.23;;;;;;;10.93;100.00;96161.16;4999272;28;102206;-63
2023/05/13 01:16:53;;;;;;;15.30;13.90;;;;;;;10.95;100.00;96162.50;5026595;28;102511;-63
2023/05/13 01:19:35;;;;;;;15.20;13.90;;;;;;;11.00;100.00;96167.03;5014199;28;103821;-63
2023/05/13 01:22:06;;;;;;;15.47;14.07;;;;;;;10.93;100.00;96164.63;5002269;28;105724;-63
2023/05/13 01:24:33;;;;;;;15.90;14.40;;;;;;;10.99;100.00;96170.75;4974887;28;105096;-63
2023/05/13 01:27:00;;;;;;;15.27;13.87;;;;;;;11.01;100.00;96171.31;4995918;28;102319;-63
2023/05/13 01:29:28;;;;;;;15.70;14.20;;;;;;;11.05;100.00;96164.41;5029504;27;102334;-63
2023/05/13 01:31:57;;;;;;;17.13;15.53;;;;;;;11.04;100.00;96166.28;5006205;28;104702;-63
2023/05/13 01:35:15;;;;;;;15.70;14.30;;;;;;;11.08;100.00;96163.91;4991631;28;101965;-63
2023/05/13 01:37:46;;;;;;;15.47;14.00;;;;;;;11.06;100.00;96168.69;5032569;28;102250;-63
2023/05/13 01:40:14;;;;;;;15.60;14.10;;;;;;;11.09;100.00;96173.47;5014204;28;105265;-63
2023/05/13 01:42:43;;;;;;;16.33;14.83;;;;;;;11.11;100.00;96171.34;5017922;28;102087;-63
2023/05/13 01:45:22;;;;;;;15.90;14.37;;;;;;;11.11;100.00;96174.84;5003054;28;103034;-63
2023/05/13 01:47:49;;;;;;;14.87;13.37;;;;;;;11.12;100.00;96186.28;4991275;28;102137;-63
2023/05/13 01:50:16;;;;;;;16.43;14.83;;;;;;;11.11;100.00;96166.84;4991160;28;105594;-63
2023/05/13 01:52:45;;;;;;;15.70;14.30;;;;;;;11.16;100.00;96171.38;4990712;28;105485;-63
2023/05/13 01:55:17;;;;;;;15.33;13.93;;;;;;;11.18;100.00;96178.06;5008339;28;101932;-63
2023/05/13 01:57:46;;;;;;;16.80;14.50;;;;;;;11.07;100.00;96171.06;5014677;28;105169;-63
2023/05/13 02:00:14;;;;;;;15.30;13.80;;;;;;;11.03;100.00;96182.50;5013591;28;105044;-63
2023/05/13 02:02:45;;;;;;;15.57;14.07;;;;;;;11.11;100.00;96180.16;5013366;28;101770;-63
2023/05/13 02:05:13;;;;;;;15.33;13.93;;;;;;;11.14;100.00;96176.19;5011014;28;104836;-63
2023/05/13 02:07:40;;;;;;;15.13;13.70;;;;;;;11.10;100.00;96175.09;5013962;28;101861;-63
2023/05/13 02:10:10;;;;;;;16.37;14.80;;;;;;;11.04;100.00;96179.59;5014154;28;104933;-63
2023/05/13 02:12:37;;;;;;;15.70;14.20;;;;;;;11.04;100.00;96176.13;5001255;28;105112;-63
2023/05/13 02:15:27;;;;;;;16.17;14.63;;;;;;;11.05;100.00;96180.38;5006389;28;101999;-63
2023/05/13 02:17:54;;;;;;;15.90;14.40;;;;;;;11.08;100.00;96172.69;4992538;28;105241;-63
2023/05/13 02:20:21;;;;;;;15.77;14.27;;;;;;;11.05;100.00;96177.72;4990458;28;105456;-63
2023/05/13 02:22:48;;;;;;;15.47;13.87;;;;;;;11.02;100.00;96178.25;4990785;28;101865;-63
2023/05/13 02:25:54;;;;;;;15.77;14.27;;;;;;;10.97;100.00;96176.34;4990338;28;105164;-63
2023/05/13 02:28:21;;;;;;;16.03;14.43;;;;;;;10.97;100.00;96180.88;5012864;28;103411;-63
2023/05/13 02:30:48;;;;;;;15.80;14.20;;;;;;;10.88;100.00;96174.44;5013863;28;105322;-63
2023/05/13 02:36:37;;;;;;;15.33;13.83;;;;;;;10.78;100.00;96177.84;4976969;28;101872;-63
2023/05/13 02:39:07;;;;;;;18.83;14.20;;;;;;;10.73;100.00;96183.13;5013707;28;105278;-63
2023/05/13 02:41:36;;;;;;;15.47;13.87;;;;;;;10.78;100.00;96171.69;5011042;28;105058;-63
2023/05/13 02:44:49;;;;;;;15.57;14.07;;;;;;;10.83;100.00;96174.38;5006618;28;101979;-63
2023/05/13 02:47:17;;;;;;;16.40;14.90;;;;;;;10.81;100.00;96173.84;4990496;28;104111;-63
2023/05/13 02:49:44;;;;;;;14.83;13.43;;;;;;;10.90;100.00;96175.78;5013706;28;102764;-63
2023/05/13 02:52:11;;;;;;;15.73;14.13;;;;;;;10.89;100.00;96176.84;5013551;28;105309;-63
2023/05/13 02:55:02;;;;;;;14.93;13.47;;;;;;;10.86;100.00;96176.56;5000785;28;105443;-63
2023/05/13 02:57:31;;;;;;;15.03;13.53;;;;;;;10.90;100.00;96178.44;4990216;28;101887;-63
2023/05/13 02:59:58;;;;;;;15.37;13.87;;;;;;;10.93;100.00;96175.28;5004306;28;104966;-63
2023/05/13 03:02:26;;;;;;;15.47;13.97;;;;;;;10.87;100.00;96175.50;5012891;28;105453;-63
2023/05/13 03:04:57;;;;;;;15.87;14.37;;;;;;;10.83;100.00;96174.38;5002588;28;103460;-63
2023/05/13 03:07:25;;;;;;;15.13;13.63;;;;;;;10.90;100.00;96175.78;4990147;28;104906;-63
2023/05/13 03:09:51;;;;;;;15.77;14.17;;;;;;;10.86;100.00;96174.69;4989391;28;105573;-63
2023/05/13 03:12:18;;;;;;;15.63;14.10;;;;;;;10.91;100.00;96179.25;4993451;28;101851;-63
2023/05/13 03:14:49;;;;;;;16.37;14.77;;;;;;;10.89;100.00;96181.34;4990331;28;105333;-63
2023/05/13 03:17:16;;;;;;;15.57;13.97;;;;;;;10.83;100.00;96172.53;4991459;28;101701;-63
2023/05/13 03:19:43;;;;;;;15.63;14.03;;;;;;;10.81;100.00;96173.84;4989564;28;105221;-63
2023/05/13 03:22:10;;;;;;;14.80;13.27;;;;;;;10.86;100.00;96173.88;4990623;28;102513;-63
2023/05/13 03:25:20;;;;;;;15.87;14.37;;;;;;;10.92;100.00;96178.19;4989367;28;103715;-63
2023/05/13 03:27:52;;;;;;;15.00;13.50;;;;;;;10.94;100.00;96186.69;4990771;28;105004;-63
2023/05/13 03:30:23;;;;;;;15.17;13.63;;;;;;;10.91;100.00;96184.56;4972533;28;105151;-63
2023/05/13 03:33:17;;;;;;;15.33;13.83;;;;;;;10.95;100.00;96194.44;4984364;28;101829;-63
2023/05/13 03:35:47;;;;;;;15.67;14.13;;;;;;;10.82;100.00;96183.44;4994924;28;105664;-63
2023/05/13 03:38:15;;;;;;;16.93;15.20;;;;;;;10.82;100.00;96188.75;4990868;28;102383;-63
2023/05/13 03:40:45;;;;;;;16.63;14.93;;;;;;;10.82;100.00;96188.75;4989557;28;105258;-63
2023/05/13 03:43:18;;;;;;;17.30;15.50;;;;;;;10.83;100.00;96187.69;5001503;28;105584;-63
2023/05/13 03:45:52;;;;;;;18.90;16.13;;;;;;;10.80;100.00;96189.00;4991437;28;101996;-63
2023/05/13 03:48:21;;;;;;;16.83;15.13;;;;;;;10.81;100.00;96198.59;4990538;28;105353;-63
2023/05/13 03:50:48;;;;;;;17.63;15.77;;;;;;;10.79;100.00;96195.38;4988701;28;104509;-63
2023/05/13 03:53:31;;;;;;;16.43;14.73;;;;;;;10.85;100.00;96204.22;4988320;28;101898;-63
2023/05/13 03:55:58;;;;;;;18.30;16.17;;;;;;;10.89;100.00;96200.78;5010805;28;105475;-63
2023/05/13 03:58:27;;;;;;;15.43;13.87;;;;;;;10.89;100.00;96206.09;5003366;28;105230;-63
2023/05/13 04:00:56;;;;;;;17.77;15.90;;;;;;;10.89;100.00;96197.31;4989275;28;105345;-63
2023/05/13 04:03:25;;;;;;;17.93;16.00;;;;;;;10.96;100.00;96205.88;4989721;28;105942;-63
2023/05/13 04:05:52;;;;;;;15.73;14.13;;;;;;;10.96;100.00;96208.53;4989145;28;102002;-63
2023/05/13 04:08:18;;;;;;;17.27;15.23;;;;;;;10.94;100.00;96210.63;4988998;28;105156;-63
2023/05/13 04:10:45;;;;;;;17.30;15.47;;;;;;;10.96;100.00;96205.88;4988443;28;105595;-63
2023/05/13 04:13:15;;;;;;;17.37;15.57;;;;;;;11.02;100.00;96210.19;4994953;28;101920;-63
2023/05/13 04:15:43;;;;;;;18.67;16.70;;;;;;;11.01;100.00;96209.38;5000833;28;106631;-63
2023/05/13 04:18:11;;;;;;;17.20;15.40;;;;;;;10.94;100.00;96208.78;4993250;28;105535;-63
2023/05/13 04:20:39;;;;;;;17.70;15.73;;;;;;;10.98;100.00;96214.41;4992077;28;101942;-63
2023/05/13 04:23:20;;;;;;;19.60;17.10;;;;;;;10.95;100.00;96217.59;5000612;28;105511;-63
2023/05/13 04:25:51;;;;;;;17.27;15.50;;;;;;;10.96;100.00;96219.19;4989310;28;102101;-63
2023/05/13 04:28:18;;;;;;;19.23;17.23;;;;;;;10.93;100.00;96225.81;4988562;28;105311;-63
2023/05/13 04:30:45;;;;;;;20.00;16.70;;;;;;;10.83;100.00;96222.28;4991576;28;105789;-63
2023/05/13 04:33:33;;;;;;;18.90;16.90;;;;;;;10.86;100.00;96216.44;4991260;28;102056;-63
2023/05/13 04:36:00;;;;;;;19.70;15.77;;;;;;;10.88;100.00;96230.28;5011751;28;105539;-63
2023/05/13 04:38:27;;;;;;;18.87;16.90;;;;;;;10.90;100.00;96233.50;5009771;28;105372;-63
2023/05/13 04:40:54;;;;;;;18.63;16.40;;;;;;;10.81;100.00;96230.53;5015342;28;101805;-63
2023/05/13 04:43:30;;;;;;;17.63;15.30;;;;;;;10.82;100.00;96233.97;4995559;28;105483;-63
2023/05/13 04:45:59;;;;;;;19.40;17.00;;;;;;;10.91;100.00;96235.13;4988572;28;101987;-63
2023/05/13 04:48:27;;;;;;;20.57;17.40;;;;;;;10.89;100.00;96232.69;4991799;28;105252;-63
2023/05/13 04:50:57;;;;;;;19.20;16.87;;;;;;;10.91;100.00;96235.13;4991825;28;105686;-63
2023/05/13 04:56:47;;;;;;;19.70;16.67;;;;;;;10.82;100.00;96239.28;5011491;28;105334;-63
2023/05/13 04:59:14;;;;;;;19.03;16.90;;;;;;;10.80;100.00;96244.06;4999442;28;103771;-63
2023/05/13 05:01:41;;;;;;;19.37;16.87;;;;;;;10.90;100.00;96244.16;4990356;28;101984;-63
2023/05/13 05:07:32;;;;;;;18.27;15.80;;;;;;;10.85;100.00;96254.75;4988385;28;101976;-63
2023/05/13 05:09:59;;;;;;;18.43;15.80;;;;;;;10.75;100.00;96252.00;4988340;28;104146;-63
2023/05/13 05:12:29;;;;;;;19.23;16.13;;;;;;;10.82;100.00;96252.59;4987560;28;105144;-62
2023/05/13 05:18:23;;;;;;;17.47;15.17;;;;;;;11.00;100.00;96255.66;4991350;28;105053;-62
2023/05/13 05:20:51;;;;;;;17.80;15.23;;;;;;;11.03;100.00;96260.47;4990649;28;105218;-62
2023/05/13 05:23:58;;;;;;;18.20;16.30;;;;;;;11.01;100.00;96261.78;4991219;28;102008;-62
2023/05/13 05:26:27;;;;;;;16.97;15.23;;;;;;;11.04;100.00;96261.25;4990681;28;105308;-62
2023/05/13 05:28:54;;;;;;;16.93;14.93;;;;;;;11.01;100.00;96267.13;4993935;28;104355;-62
2023/05/13 05:31:21;;;;;;;16.63;14.57;;;;;;;11.13;100.00;96273.03;4987831;28;105365;-62
2023/05/13 05:34:00;;;;;;;16.27;14.53;;;;;;;11.16;100.00;96268.00;4987024;28;105055;-62
2023/05/13 05:36:27;;;;;;;16.60;14.90;;;;;;;11.07;100.00;96266.09;4987617;28;101988;-62
2023/05/13 05:38:54;;;;;;;17.13;14.87;;;;;;;11.14;100.00;96266.66;4989100;28;102341;-62
2023/05/13 05:41:23;;;;;;;15.97;14.13;;;;;;;11.13;100.00;96265.84;4987399;28;105057;-62
2023/05/13 05:44:06;;;;;;;15.70;13.80;;;;;;;11.25;100.00;96268.31;4987890;28;101939;-62
2023/05/13 05:46:34;;;;;;;15.17;13.57;;;;;;;11.26;100.00;96270.75;4987949;28;103352;-62
2023/05/13 05:49:02;;;;;;;16.10;14.30;;;;;;;11.30;100.00;96271.03;4987127;28;105958;-62
2023/05/13 05:51:31;;;;;;;16.37;13.17;;;;;;;11.32;100.00;96277.69;5007554;28;102332;-62
2023/05/13 05:54:10;;;;;;;14.97;13.20;;;;;;;11.39;100.00;96270.28;4987236;28;105192;-62
2023/05/13 05:56:38;;;;;;;14.90;12.43;;;;;;;11.36;100.00;96272.66;4987550;28;102165;-62
2023/05/13 05:59:07;;;;;;;14.27;12.73;;;;;;;11.42;100.00;96268.94;4988919;28;102706;-62
2023/05/13 06:01:35;;;;;;;13.97;12.57;;;;;;;11.39;100.00;96267.59;4986829;28;105707;-63
2023/05/13 06:04:05;;;;;;;14.57;12.37;;;;;;;11.47;100.00;96276.97;4987349;28;102101;-62
2023/05/13 06:06:32;;;;;;;13.50;12.10;;;;;;;11.47;100.00;96279.63;4998974;28;102746;-62
2023/05/13 06:09:00;;;;;;;13.97;12.47;;;;;;;11.62;100.00;96277.09;5010320;28;105338;-62
2023/05/13 06:11:27;;;;;;;13.73;12.20;;;;;;;11.60;100.00;96277.34;5010269;28;101887;-62
2023/05/13 06:13:57;;;;;;;13.03;11.73;;;;;;;11.66;100.00;96275.53;5013549;28;105346;-62
2023/05/13 06:16:25;;;;;;;13.47;12.13;;;;;;;11.72;100.00;96272.59;4997091;28;101845;-62
2023/05/13 06:18:52;;;;;;;12.00;10.80;;;;;;;11.71;100.00;96275.50;4990666;28;105244;-62
2023/05/13 06:21:20;;;;;;;12.83;11.43;;;;;;;11.63;100.00;96276.84;4991367;28;105393;-62
2023/05/13 06:24:20;;;;;;;12.17;10.90;;;;;;;11.66;100.00;96275.53;4992006;28;101875;-62
2023/05/13 06:26:47;;;;;;;12.53;11.30;;;;;;;11.80;100.00;96281.97;4973495;28;105022;-62
2023/05/13 06:29:15;;;;;;;12.57;11.33;;;;;;;11.79;100.00;96275.03;4973403;28;105354;-62
2023/05/13 06:31:43;;;;;;;12.47;11.20;;;;;;;11.76;100.00;96280.88;4973801;28;101886;-62
2023/05/13 06:34:19;;;;;;;12.47;11.20;;;;;;;11.83;100.00;96281.44;5002963;28;105220;-62
2023/05/13 06:36:46;;;;;;;12.03;10.83;;;;;;;11.86;100.00;96279.06;5016559;28;105399;-62
2023/05/13 06:39:14;;;;;;;12.20;11.00;;;;;;;11.97;100.00;96283.38;4995659;28;103707;-62
2023/05/13 06:41:42;;;;;;;11.70;10.60;;;;;;;11.89;100.00;96285.75;4990090;28;105460;-62
2023/05/13 06:44:45;;;;;;;11.33;10.23;;;;;;;11.95;100.00;96280.16;4990037;28;101764;-62
2023/05/13 06:47:15;;;;;;;12.17;10.27;;;;;;;11.99;100.00;96285.78;4973904;28;105557;-62
2023/05/13 06:49:49;;;;;;;10.90;9.80;;;;;;;12.11;100.00;96278.34;4989586;28;105467;-62
2023/05/13 06:52:16;;;;;;;11.10;10.00;;;;;;;12.18;100.00;96278.91;4974378;28;101859;-62
2023/05/13 06:54:45;;;;;;;10.50;9.03;;;;;;;12.21;100.00;96286.38;4991470;28;105548;-62
2023/05/13 06:57:12;;;;;;;10.33;9.23;;;;;;;12.10;100.00;96284.75;4997106;28;105571;-62
2023/05/13 06:59:38;;;;;;;11.43;10.10;;;;;;;12.17;100.00;96287.97;4994214;28;104886;-62
2023/05/13 07:02:08;;;;;;;11.10;10.00;;;;;;;12.23;100.00;96281.56;4992938;28;105891;-62
2023/05/13 07:05:13;;;;;;;12.80;11.00;;;;;;;12.22;100.00;96287.97;4993192;28;101893;-62
2023/05/13 07:07:42;;;;;;;11.10;10.00;;;;;;;12.23;100.00;96286.91;4991470;28;104676;-62
2023/05/13 07:10:09;;;;;;;10.63;9.63;;;;;;;12.30;100.00;96290.13;5009244;28;105510;-62
2023/05/13 07:12:36;;;;;;;11.30;10.10;;;;;;;12.42;100.00;96291.47;4992203;28;101884;-62
2023/05/13 07:15:10;;;;;;;11.20;10.10;;;;;;;12.71;100.00;96289.13;4991115;28;105278;-62
2023/05/13 07:17:37;;;;;;;11.13;9.53;;;;;;;12.74;100.00;96292.06;4991602;28;103182;-62
2023/05/13 07:20:05;;;;;;;10.00;9.00;;;;;;;12.71;100.00;96291.81;5001359;28;101888;-62
2023/05/13 07:22:31;;;;;;;9.87;8.97;;;;;;;12.91;100.00;96295.28;5031470;28;103228;-62
2023/05/13 07:25:44;;;;;;;10.30;9.30;;;;;;;12.71;100.00;96289.91;5013968;28;101962;-62
2023/05/13 07:28:12;;;;;;;10.17;9.20;;;;;;;12.95;100.00;96298.22;5029455;27;103105;-62
2023/05/13 07:30:40;;;;;;;9.83;8.83;;;;;;;13.06;100.00;96294.50;5015596;28;103085;-62
2023/05/13 07:33:23;;;;;;;9.33;8.43;;;;;;;13.17;100.00;96298.75;4991688;28;101838;-62
2023/05/13 07:35:50;;;;;;;9.90;8.97;;;;;;;13.24;100.00;96288.63;4990580;28;103595;-62
2023/05/13 07:38:17;;;;;;;9.03;7.90;;;;;;;13.29;100.00;96294.75;4997932;28;105850;-62
2023/05/13 07:40:44;;;;;;;8.17;7.40;;;;;;;13.21;100.00;96300.66;5016817;28;102037;-62
2023/05/13 07:43:22;;;;;;;8.93;8.10;;;;;;;13.27;100.00;96293.41;4994496;28;102333;-62
2023/05/13 07:45:49;;;;;;;8.03;7.33;;;;;;;13.20;100.00;96296.34;4992029;28;101975;-62
2023/05/13 07:48:16;;;;;;;8.07;7.30;;;;;;;13.10;100.00;96299.06;4992486;28;102438;-62
2023/05/13 07:50:43;;;;;;;7.43;6.70;;;;;;;13.08;100.00;96301.16;4990850;28;102527;-62
2023/05/13 07:53:35;;;;;;;7.80;6.87;;;;;;;13.11;100.00;96294.50;4990160;28;102035;-63
2023/05/13 07:56:02;;;;;;;7.03;6.43;;;;;;;13.23;100.00;96297.69;4991379;28;102354;-62
2023/05/13 07:58:31;;;;;;;6.93;6.33;;;;;;;13.23;100.00;96306.50;5002872;28;102625;-63
2023/05/13 08:00:58;;;;;;;6.93;6.30;;;;;;;13.32;100.00;96302.25;5000292;28;102018;-62
2023/05/13 08:03:27;;;;;;;5.63;5.00;;;;;;;13.32;100.00;96296.09;4990022;28;105309;-62
2023/05/13 08:05:53;;;;;;;5.77;5.27;;;;;;;13.11;100.00;96306.00;4993747;28;104293;-62
2023/05/13 08:08:20;;;;;;;6.23;5.63;;;;;;;13.18;100.00;96311.84;4997784;28;105439;-62
2023/05/13 08:10:47;;;;;;;5.83;5.30;;;;;;;13.38;100.00;96305.69;5001111;28;106076;-62
2023/05/13 08:13:24;;;;;;;5.50;5.07;;;;;;;13.38;100.00;96305.69;4993279;28;101881;-62
2023/05/13 08:15:52;;;;;;;6.10;5.60;;;;;;;13.51;100.00;96300.59;5006497;28;103813;-62
2023/05/13 08:18:19;;;;;;;6.00;5.50;;;;;;;13.46;100.00;96302.47;5005161;28;103662;-62
2023/05/13 08:20:46;;;;;;;6.50;6.00;;;;;;;13.33;100.00;96301.16;5003317;28;102101;-62
2023/05/13 08:23:18;;;;;;;6.37;5.87;;;;;;;13.21;100.00;96299.84;5007150;28;105627;-62
2023/05/13 08:25:45;;;;;;;5.80;5.30;;;;;;;13.47;100.00;96298.72;4989180;28;105048;-62
2023/05/13 08:28:12;;;;;;;5.87;5.37;;;;;;;13.54;100.00;96299.25;4997696;28;102231;-62
2023/05/13 08:30:40;;;;;;;5.97;5.47;;;;;;;13.57;100.00;96304.06;5011525;28;105727;-62
2023/05/13 08:33:13;;;;;;;5.40;5.00;;;;;;;13.39;100.00;96297.41;5009418;28;101933;-62
2023/05/13 08:35:40;;;;;;;6.07;5.57;;;;;;;13.40;100.00;96301.69;4989674;28;104790;-62
2023/05/13 08:38:06;;;;;;;5.83;5.33;;;;;;;13.48;100.00;96303.00;4992890;28;102739;-62
2023/05/13 08:40:33;;;;;;;6.00;5.40;;;;;;;13.48;100.00;96303.00;5000594;28;102211;-62
2023/05/13 08:43:03;;;;;;;5.47;5.00;;;;;;;13.45;100.00;96295.50;5012389;28;105588;-62
2023/05/13 08:45:30;;;;;;;5.50;5.10;;;;;;;13.23;100.00;96306.50;5012060;28;105694;-62
2023/05/13 08:48:00;;;;;;;5.23;4.83;;;;;;;13.21;100.00;96306.00;5012161;28;101832;-62
2023/05/13 08:50:29;;;;;;;4.80;4.40;;;;;;;12.91;100.00;96305.16;5001629;28;105219;-62
2023/05/13 08:52:58;;;;;;;4.70;4.23;;;;;;;13.11;100.00;96307.84;5012309;28;101922;-62
2023/05/13 08:55:25;;;;;;;7.40;5.17;;;;;;;13.33;100.00;96309.19;4992371;28;104830;-62
2023/05/13 08:57:52;;;;;;;5.30;4.90;;;;;;;13.65;100.00;96308.84;5009992;28;102797;-62
2023/05/13 09:00:19;;;;;;;5.43;5.03;;;;;;;13.51;100.00;96305.16;5026069;28;101740;-62
2023/05/13 09:02:46;;;;;;;5.13;4.73;;;;;;;13.58;100.00;96306.44;5030669;28;102860;-62
2023/05/13 09:05:24;;;;;;;4.80;4.40;;;;;;;13.89;100.00;96307.97;5029414;28;103341;-62
2023/05/13 09:07:53;;;;;;;4.83;4.43;;;;;;;14.48;100.00;96300.78;5012820;28;102042;-62
2023/05/13 09:10:21;;;;;;;4.47;4.17;;;;;;;14.79;100.00;96301.38;5003454;28;104845;-62
2023/05/13 09:12:49;;;;;;;4.00;3.80;;;;;;;14.56;100.00;96307.41;4989042;28;101964;-62
2023/05/13 09:15:21;;;;;;;4.33;4.03;;;;;;;14.39;100.00;96307.78;4992435;28;105812;-62
2023/05/13 09:17:51;;;;;;;4.17;3.87;;;;;;;14.57;100.00;96309.00;4991768;28;104077;-62
2023/05/13 09:20:19;;;;;;;4.20;3.90;;;;;;;14.28;100.00;96308.91;4989969;28;101937;-62
2023/05/13 09:22:46;;;;;;;4.13;3.83;;;;;;;14.37;100.00;96306.44;4988952;28;104884;-62
2023/05/13 09:25:18;;;;;;;3.73;3.50;;;;;;;14.31;100.00;96304.88;4974940;28;105936;-62
2023/05/13 09:27:47;;;;;;;4.00;3.70;;;;;;;14.43;100.00;96302.66;4992909;28;101996;-63
2023/05/13 09:30:15;;;;;;;3.43;3.23;;;;;;;14.65;100.00;96305.75;4990816;28;102249;-63
2023/05/13 09:32:42;;;;;;;3.23;3.03;;;;;;;14.34;100.00;96301.66;5008014;28;102992;-63
2023/05/13 09:35:16;;;;;;;3.33;3.13;;;;;;;14.50;100.00;96298.59;5012274;28;104908;-63
2023/05/13 09:37:45;;;;;;;3.20;3.00;;;;;;;14.61;100.00;96300.16;4989644;28;102950;-63
2023/05/13 09:40:13;;;;;;;3.40;3.10;;;;;;;14.57;100.00;96303.66;4973605;28;102190;-63
2023/05/13 09:42:58;;;;;;;3.13;2.93;;;;;;;14.49;100.00;96301.59;4990047;28;102356;-63
2023/05/13 09:45:25;;;;;;;3.63;3.43;;;;;;;14.54;100.00;96302.34;4989363;28;102755;-63
2023/05/13 09:47:52;;;;;;;4.20;3.80;;;;;;;14.40;100.00;96300.56;4990977;28;101864;-63
2023/05/13 09:50:19;;;;;;;4.10;3.80;;;;;;;14.12;100.00;96306.56;5000603;27;102574;-63
2023/05/13 09:52:46;;;;;;;3.90;3.60;;;;;;;14.25;100.00;96303.31;5032349;28;102833;-63
2023/05/13 09:55:18;;;;;;;3.23;3.03;;;;;;;14.12;100.00;96306.56;4983165;28;102133;-63
2023/05/13 09:57:47;;;;;;;3.67;3.47;;;;;;;14.02;100.00;96301.25;5009967;28;103805;-63
2023/05/13 10:00:15;;;;;;;3.80;3.57;;;;;;;13.84;100.00;96301.84;4999916;28;102069;-63
2023/05/13 10:02:42;;;;;;;3.73;3.43;;;;;;;14.03;100.00;96302.84;5015302;28;105890;-63
2023/05/13 10:05:26;;;;;;;3.20;3.00;;;;;;;14.25;100.00;96306.78;4998904;28;102479;-63
2023/05/13 10:07:54;;;;;;;3.60;3.40;;;;;;;14.61;100.00;96300.16;4991831;28;101918;-63
2023/05/13 10:10:22;;;;;;;3.53;3.33;;;;;;;15.12;100.00;96296.03;5000107;28;105040;-63
2023/05/13 10:12:51;;;;;;;3.20;3.00;;;;;;;15.46;100.00;96298.69;5014307;28;105036;-63
2023/05/13 10:15:31;;;;;;;2.47;2.30;;;;;;;15.25;100.00;96292.69;5013794;28;103243;-63
2023/05/13 10:17:59;;;;;;;2.83;2.63;;;;;;;15.26;100.00;96293.50;5001358;28;107464;-63
2023/05/13 10:20:26;;;;;;;3.30;3.10;;;;;;;14.91;100.00;96294.59;5014837;28;102343;-63
2023/05/13 10:22:54;;;;;;;3.67;3.17;;;;;;;14.93;100.00;96292.44;5014251;28;104909;-63
2023/05/13 10:25:21;;;;;;;3.10;2.90;;;;;;;15.03;100.00;96296.91;4996752;28;104980;-63
2023/05/13 10:27:51;;;;;;;3.13;2.93;;;;;;;15.28;100.00;96294.81;4994959;28;102156;-63
2023/05/13 10:30:19;;;;;;;3.63;3.33;;;;;;;15.25;100.00;96295.38;5014959;28;105430;-63
2023/05/13 10:32:46;;;;;;;4.00;3.70;;;;;;;15.49;100.00;96296.25;5013597;28;105540;-62
2023/05/13 10:35:26;;;;;;;4.20;3.90;;;;;;;15.34;100.00;96296.41;5033145;28;101921;-63
2023/05/13 10:38:07;;;;;;;4.60;4.30;;;;;;;14.99;100.00;96299.34;5008996;28;105145;-63
2023/05/13 10:41:04;;;;;;;4.63;4.33;;;;;;;14.78;100.00;96295.22;4995229;28;105192;-63
2023/05/13 10:43:39;;;;;;;4.07;3.77;;;;;;;14.69;100.00;96296.09;4991353;28;105099;-63
2023/05/13 10:46:07;;;;;;;4.77;4.43;;;;;;;14.78;100.00;96291.75;5011178;28;105252;-63
2023/05/13 10:48:42;;;;;;;5.10;4.70;;;;;;;14.79;100.00;96290.66;5002831;28;102077;-63
2023/05/13 10:51:13;;;;;;;4.60;4.30;;;;;;;14.82;100.00;96292.81;4991233;28;105021;-63
2023/05/13 10:53:52;;;;;;;4.53;4.23;;;;;;;14.73;100.00;96295.28;4992058;28;103148;-63
2023/05/13 10:56:21;;;;;;;4.60;4.20;;;;;;;14.86;100.00;96291.16;4995222;28;102442;-63
2023/05/13 10:59:00;;;;;;;4.47;4.07;;;;;;;15.00;100.00;96290.22;4992785;28;102429;-63
2023/05/13 11:01:29;;;;;;;4.57;4.17;;;;;;;14.69;100.00;96282.69;5015030;27;103002;-63
2023/05/13 11:04:03;;;;;;;4.50;4.10;;;;;;;14.76;100.00;96297.38;5032751;28;101886;-63
2023/05/13 11:06:35;;;;;;;4.60;4.30;;;;;;;14.63;100.00;96294.53;5019893;28;102622;-63
2023/05/13 11:09:05;;;;;;;5.33;4.83;;;;;;;14.85;100.00;96290.34;5004845;28;102074;-63
2023/05/13 11:11:34;;;;;;;4.00;3.70;;;;;;;15.11;100.00;96299.81;4994892;28;105620;-63
2023/05/13 11:14:19;;;;;;;4.80;4.40;;;;;;;15.53;100.00;96288.47;4991425;28;102786;-62
2023/05/13 11:16:48;;;;;;;4.33;4.03;;;;;;;15.52;100.00;96298.38;5002157;28;101908;-63
2023/05/13 11:19:21;;;;;;;4.37;4.07;;;;;;;15.40;100.00;96291.78;4999500;28;103563;-63
2023/05/13 11:21:51;;;;;;;4.17;3.77;;;;;;;15.53;100.00;96291.13;4991234;28;102611;-63
2023/05/13 11:24:26;;;;;;;4.20;3.80;;;;;;;15.53;100.00;96296.50;4998118;28;101924;-63
2023/05/13 11:26:56;;;;;;;3.73;3.43;;;;;;;15.37;100.00;96287.00;4989378;28;105401;-63
2023/05/13 11:29:47;;;;;;;4.13;3.83;;;;;;;15.53;100.00;96291.13;4991875;28;101863;-63
2023/05/13 11:32:14;;;;;;;4.20;3.90;;;;;;;15.00;100.00;96287.53;4988986;28;105278;-63
2023/05/13 11:34:51;;;;;;;4.03;3.73;;;;;;;15.62;100.00;96289.41;4991149;28;102512;-63
2023/05/13 11:37:18;;;;;;;4.20;3.90;;;;;;;16.02;100.00;96294.34;4980597;28;103343;-63
2023/05/13 11:39:45;;;;;;;5.20;4.77;;;;;;;15.77;100.00;96292.75;4986088;28;101695;-63
2023/05/13 11:42:13;;;;;;;4.93;4.53;;;;;;;15.60;100.00;96294.28;4989459;28;105415;-63